sensor_id;sensor_type;location;lat;lon;timestamp;pressure;altitude;pressure_sealevel;temperature;humidity
56402;BME280;42299;35.160;26.100;2023-04-05T00:00:29;100799.91;;;13.21;100.00
56402;BME280;42299;35.160;26.100;2023-04-05T00:01:52;100806.97;;;13.21;100.00
56402;BME280;42299;35.160;26.100;2023-04-05T00:03:13;100792.84;;;13.20;100.00
56402;BME280;42299;35.160;26.100;2023-04-05T00:04:37;100790.19;;;13.22;100.00
56402;BME280;42299;35.160;26.100;2023-04-05T00:06:09;100804.31;;;13.18;100.00
56402;BME280;42299;35.160;26.100;2023-04-05T00:07:33;100803.41;;;13.15;100.00
56402;BME280;42299;35.160;26.100;2023-04-05T00:08:54;100798.09;;;13.14;100.00
56402;BME280;42299;35.160;26.100;2023-04-05T00:10:17;100799.84;;;13.10;100.00
56402;BME280;42299;35.160;26.100;2023-04-05T00:11:38;100798.94;;;13.08;100.00
56402;BME280;42299;35.160;26.100;2023-04-05T00:13:01;100800.69;;;13.08;100.00
56402;BME280;42299;35.160;26.100;2023-04-05T00:14:22;100798.03;;;13.08;100.00
56402;BME280;42299;35.160;26.100;2023-04-05T00:15:47;100799.81;;;13.09;100.00
56402;BME280;42299;35.160;26.100;2023-04-05T00:17:08;100800.66;;;13.02;100.00
56402;BME280;42299;35.160;26.100;2023-04-05T00:18:31;100803.22;;;12.90;100.00
56402;BME280;42299;35.160;26.100;2023-04-05T00:19:53;100798.75;;;12.78;100.00
56402;BME280;42299;35.160;26.100;2023-04-05T00:21:18;100798.72;;;12.76;100.00
56402;BME280;42299;35.160;26.100;2023-04-05T00:22:41;100808.44;;;12.81;100.00
56402;BME280;42299;35.160;26.100;2023-04-05T00:24:05;100800.53;;;12.84;100.00
56402;BME280;42299;35.160;26.100;2023-04-05T00:25:27;100809.28;;;12.73;100.00
56402;BME280;42299;35.160;26.100;2023-04-05T00:26:49;100811.00;;;12.65;100.00
56402;BME280;42299;35.160;26.100;2023-04-05T00:28:11;100813.63;;;12.64;100.00
56402;BME280;42299;35.160;26.100;2023-04-05T00:29:33;100814.53;;;12.67;100.00
56402;BME280;42299;35.160;26.100;2023-04-05T00:30:58;100809.28;;;12.70;100.00
56402;BME280;42299;35.160;26.100;2023-04-05T00:32:21;100816.34;;;12.74;100.00
56402;BME280;42299;35.160;26.100;2023-04-05T00:33:42;100814.63;;;12.78;100.00
56402;BME280;42299;35.160;26.100;2023-04-05T00:35:05;100812.00;;;12.80;100.00
56402;BME280;42299;35.160;26.100;2023-04-05T00:36:27;100806.69;;;12.81;100.00
56402;BME280;42299;35.160;26.100;2023-04-05T00:37:49;100805.81;;;12.81;100.00
56402;BME280;42299;35.160;26.100;2023-04-05T00:39:10;100805.81;;;12.81;100.00
56402;BME280;42299;35.160;26.100;2023-04-05T00:40:33;100810.22;;;12.82;100.00
56402;BME280;42299;35.160;26.100;2023-04-05T00:41:54;100818.19;;;12.83;100.00
56402;BME280;42299;35.160;26.100;2023-04-05T00:43:17;100817.31;;;12.84;100.00
56402;BME280;42299;35.160;26.100;2023-04-05T00:44:38;100821.72;;;12.84;100.00
56402;BME280;42299;35.160;26.100;2023-04-05T00:46:03;100821.72;;;12.82;100.00
56402;BME280;42299;35.160;26.100;2023-04-05T00:47:25;100819.91;;;12.76;100.00
56402;BME280;42299;35.160;26.100;2023-04-05T00:48:47;100818.09;;;12.71;100.00
56402;BME280;42299;35.160;26.100;2023-04-05T00:50:11;100817.19;;;12.64;100.00
56402;BME280;42299;35.160;26.100;2023-04-05T00:51:33;100828.53;;;12.54;100.00
56402;BME280;42299;35.160;26.100;2023-04-05T00:52:56;100818.78;;;12.49;100.00
56402;BME280;42299;35.160;26.100;2023-04-05T00:54:18;100824.13;;;12.50;100.00
56402;BME280;42299;35.160;26.100;2023-04-05T00:55:40;100816.19;;;12.52;100.00
56402;BME280;42299;35.160;26.100;2023-04-05T00:57:02;100825.03;;;12.55;100.00
56402;BME280;42299;35.160;26.100;2023-04-05T00:58:25;100822.41;;;12.58;100.00
56402;BME280;42299;35.160;26.100;2023-04-05T00:59:47;100823.31;;;12.60;100.00
56402;BME280;42299;35.160;26.100;2023-04-05T01:01:12;100823.31;;;12.59;100.00
56402;BME280;42299;35.160;26.100;2023-04-05T01:02:44;100834.78;;;12.58;100.00
56402;BME280;42299;35.160;26.100;2023-04-05T01:04:10;100839.13;;;12.54;100.00
56402;BME280;42299;35.160;26.100;2023-04-05T01:05:36;100828.56;;;12.53;100.00
56402;BME280;42299;35.160;26.100;2023-04-05T01:07:06;100833.84;;;12.53;100.00
56402;BME280;42299;35.160;26.100;2023-04-05T01:08:33;100831.19;;;12.54;100.00
56402;BME280;42299;35.160;26.100;2023-04-05T01:10:01;100826.81;;;12.56;100.00
56402;BME280;42299;35.160;26.100;2023-04-05T01:11:25;100832.13;;;12.61;100.00
56402;BME280;42299;35.160;26.100;2023-04-05T01:12:47;100836.59;;;12.63;100.00
56402;BME280;42299;35.160;26.100;2023-04-05T01:14:10;100844.56;;;12.66;100.00
56402;BME280;42299;35.160;26.100;2023-04-05T01:15:31;100844.56;;;12.68;100.00
56402;BME280;42299;35.160;26.100;2023-04-05T01:16:55;100839.25;;;12.68;100.00
56402;BME280;42299;35.160;26.100;2023-04-05T01:18:18;100847.22;;;12.69;100.00
56402;BME280;42299;35.160;26.100;2023-04-05T01:19:41;100840.16;;;12.70;100.00
56402;BME280;42299;35.160;26.100;2023-04-05T01:23:18;100840.97;;;12.61;100.00
56402;BME280;42299;35.160;26.100;2023-04-05T01:24:56;100840.75;;;12.35;100.00
56402;BME280;42299;35.160;26.100;2023-04-05T01:26:43;100845.84;;;12.16;100.00
56402;BME280;42299;35.160;26.100;2023-04-05T01:28:20;100840.47;;;12.08;100.00
56402;BME280;42299;35.160;26.100;2023-04-05T01:30:04;100844.94;;;12.14;100.00
56402;BME280;42299;35.160;26.100;2023-04-05T01:31:32;100847.66;;;12.20;100.00
56402;BME280;42299;35.160;26.100;2023-04-05T01:33:02;100849.47;;;12.25;100.00
56402;BME280;42299;35.160;26.100;2023-04-05T01:34:38;100853.06;;;12.30;100.00
56402;BME280;42299;35.160;26.100;2023-04-05T01:36:05;100853.94;;;12.34;100.00
56402;BME280;42299;35.160;26.100;2023-04-05T01:37:31;100858.38;;;12.32;100.00
56402;BME280;42299;35.160;26.100;2023-04-05T01:38:53;100853.94;;;12.31;100.00
56402;BME280;42299;35.160;26.100;2023-04-05T01:40:17;100858.38;;;12.32;100.00
56402;BME280;42299;35.160;26.100;2023-04-05T01:41:40;100863.69;;;12.33;100.00
56402;BME280;42299;35.160;26.100;2023-04-05T01:43:01;100860.13;;;12.34;100.00
56402;BME280;42299;35.160;26.100;2023-04-05T01:44:23;100864.56;;;12.35;100.00
56402;BME280;42299;35.160;26.100;2023-04-05T01:45:46;100860.19;;;12.37;100.00
56402;BME280;42299;35.160;26.100;2023-04-05T01:47:09;100861.06;;;12.38;100.00
56402;BME280;42299;35.160;26.100;2023-04-05T01:48:32;100866.38;;;12.38;100.00
56402;BME280;42299;35.160;26.100;2023-04-05T01:49:54;100860.19;;;12.39;100.00
56402;BME280;42299;35.160;26.100;2023-04-05T01:51:19;100869.00;;;12.38;100.00
56402;BME280;42299;35.160;26.100;2023-04-05T01:52:41;100867.28;;;12.40;100.00
56402;BME280;42299;35.160;26.100;2023-04-05T01:54:03;100864.63;;;12.40;100.00
56402;BME280;42299;35.160;26.100;2023-04-05T01:55:24;100860.19;;;12.41;100.00
56402;BME280;42299;35.160;26.100;2023-04-05T01:56:47;100863.75;;;12.43;100.00
56402;BME280;42299;35.160;26.100;2023-04-05T01:58:08;100859.34;;;12.43;100.00
56402;BME280;42299;35.160;26.100;2023-04-05T01:59:31;100856.72;;;12.45;100.00
56402;BME280;42299;35.160;26.100;2023-04-05T02:00:55;100851.44;;;12.45;100.00
56402;BME280;42299;35.160;26.100;2023-04-05T02:02:18;100849.66;;;12.44;100.00
56402;BME280;42299;35.160;26.100;2023-04-05T02:03:39;100857.63;;;12.45;100.00
56402;BME280;42299;35.160;26.100;2023-04-05T02:05:01;100864.63;;;12.40;100.00
56402;BME280;42299;35.160;26.100;2023-04-05T02:06:24;100866.25;;;12.26;100.00
56402;BME280;42299;35.160;26.100;2023-04-05T02:07:46;100868.75;;;12.12;100.00
56402;BME280;42299;35.160;26.100;2023-04-05T02:09:08;100867.75;;;12.04;100.00
56402;BME280;42299;35.160;26.100;2023-04-05T02:10:30;100873.09;;;12.06;100.00
56402;BME280;42299;35.160;26.100;2023-04-05T02:11:52;100874.88;;;12.10;100.00
56402;BME280;42299;35.160;26.100;2023-04-05T02:13:13;100871.41;;;12.15;100.00
56402;BME280;42299;35.160;26.100;2023-04-05T02:14:36;100867.06;;;12.19;100.00
56402;BME280;42299;35.160;26.100;2023-04-05T02:15:59;100868.84;;;12.23;100.00
56402;BME280;42299;35.160;26.100;2023-04-05T02:17:22;100878.56;;;12.24;100.00
56402;BME280;42299;35.160;26.100;2023-04-05T02:18:44;100875.94;;;12.25;100.00
56402;BME280;42299;35.160;26.100;2023-04-05T02:20:11;100881.25;;;12.25;100.00
56402;BME280;42299;35.160;26.100;2023-04-05T02:21:34;100890.88;;;12.22;100.00
56402;BME280;42299;35.160;26.100;2023-04-05T02:22:57;100884.63;;;12.15;100.00
56402;BME280;42299;35.160;26.100;2023-04-05T02:24:18;100881.06;;;12.10;100.00
56402;BME280;42299;35.160;26.100;2023-04-05T02:25:41;100882.78;;;12.08;100.00
56402;BME280;42299;35.160;26.100;2023-04-05T02:27:04;100881.94;;;12.11;100.00
56402;BME280;42299;35.160;26.100;2023-04-05T02:28:25;100877.56;;;12.14;100.00
56402;BME280;42299;35.160;26.100;2023-04-05T02:29:48;100875.84;;;12.18;100.00
56402;BME280;42299;35.160;26.100;2023-04-05T02:31:11;100887.34;;;12.20;100.00
56402;BME280;42299;35.160;26.100;2023-04-05T02:32:36;100885.59;;;12.22;100.00
56402;BME280;42299;35.160;26.100;2023-04-05T02:33:58;100892.72;;;12.26;100.00
56402;BME280;42299;35.160;26.100;2023-04-05T02:35:20;100891.84;;;12.27;100.00
56402;BME280;42299;35.160;26.100;2023-04-05T02:36:44;100889.19;;;12.27;100.00
56402;BME280;42299;35.160;26.100;2023-04-05T02:38:07;100882.94;;;12.20;100.00
56402;BME280;42299;35.160;26.100;2023-04-05T02:39:29;100874.06;;;12.17;100.00
56402;BME280;42299;35.160;26.100;2023-04-05T02:40:52;100877.63;;;12.17;100.00
56402;BME280;42299;35.160;26.100;2023-04-05T02:42:13;100871.44;;;12.17;100.00
56402;BME280;42299;35.160;26.100;2023-04-05T02:43:36;100878.47;;;12.16;100.00
56402;BME280;42299;35.160;26.100;2023-04-05T02:44:57;100877.56;;;12.14;100.00
56402;BME280;42299;35.160;26.100;2023-04-05T02:46:21;100881.09;;;12.13;100.00
56402;BME280;42299;35.160;26.100;2023-04-05T02:47:43;100884.66;;;12.14;100.00
56402;BME280;42299;35.160;26.100;2023-04-05T02:49:06;100885.53;;;12.16;100.00
56402;BME280;42299;35.160;26.100;2023-04-05T02:50:30;100892.59;;;12.17;100.00
56402;BME280;42299;35.160;26.100;2023-04-05T02:51:51;100896.09;;;12.14;100.00
56402;BME280;42299;35.160;26.100;2023-04-05T02:53:15;100896.97;;;12.12;100.00
56402;BME280;42299;35.160;26.100;2023-04-05T02:54:43;100901.28;;;12.05;100.00
56402;BME280;42299;35.160;26.100;2023-04-05T02:56:10;100889.78;;;12.03;100.00
56402;BME280;42299;35.160;26.100;2023-04-05T02:57:36;100897.72;;;12.02;100.00
56402;BME280;42299;35.160;26.100;2023-04-05T02:59:14;100902.16;;;12.01;100.00
56402;BME280;42299;35.160;26.100;2023-04-05T03:00:37;100903.84;;;11.97;100.00
56402;BME280;42299;35.160;26.100;2023-04-05T03:02:03;100899.41;;;11.93;100.00
56402;BME280;42299;35.160;26.100;2023-04-05T03:03:25;100903.81;;;11.94;100.00
56402;BME280;42299;35.160;26.100;2023-04-05T03:04:50;100902.09;;;11.98;100.00
56402;BME280;42299;35.160;26.100;2023-04-05T03:06:12;100906.53;;;12.01;100.00
56402;BME280;42299;35.160;26.100;2023-04-05T03:07:39;100914.47;;;12.01;100.00
56402;BME280;42299;35.160;26.100;2023-04-05T03:09:05;100913.56;;;11.98;100.00
56402;BME280;42299;35.160;26.100;2023-04-05T03:10:29;100914.41;;;11.96;100.00
56402;BME280;42299;35.160;26.100;2023-04-05T03:11:59;100911.75;;;11.94;100.00
56402;BME280;42299;35.160;26.100;2023-04-05T03:13:24;100911.75;;;11.94;100.00
56402;BME280;42299;35.160;26.100;2023-04-05T03:14:46;100909.97;;;11.93;100.00
56402;BME280;42299;35.160;26.100;2023-04-05T03:16:12;100908.22;;;11.94;100.00
56402;BME280;42299;35.160;26.100;2023-04-05T03:17:37;100910.88;;;11.94;100.00
56402;BME280;42299;35.160;26.100;2023-04-05T03:19:00;100908.22;;;11.94;100.00
56402;BME280;42299;35.160;26.100;2023-04-05T03:20:22;100915.25;;;11.92;100.00
56402;BME280;42299;35.160;26.100;2023-04-05T03:21:47;100909.00;;;11.88;100.00
56402;BME280;42299;35.160;26.100;2023-04-05T03:23:21;100914.28;;;11.85;100.00
56402;BME280;42299;35.160;26.100;2023-04-05T03:24:47;100921.31;;;11.85;100.00
56402;BME280;42299;35.160;26.100;2023-04-05T03:26:11;100920.44;;;11.84;100.00
56402;BME280;42299;35.160;26.100;2023-04-05T03:27:37;100908.06;;;11.83;100.00
56402;BME280;42299;35.160;26.100;2023-04-05T03:29:03;100909.81;;;11.83;100.00
56402;BME280;42299;35.160;26.100;2023-04-05T03:30:29;100900.97;;;11.79;100.00
56402;BME280;42299;35.160;26.100;2023-04-05T03:31:57;100905.38;;;11.79;100.00
56402;BME280;42299;35.160;26.100;2023-04-05T03:33:22;100914.19;;;11.79;100.00
56402;BME280;42299;35.160;26.100;2023-04-05T03:34:44;100910.66;;;11.79;100.00
56402;BME280;42299;35.160;26.100;2023-04-05T03:36:09;100912.41;;;11.78;100.00
56402;BME280;42299;35.160;26.100;2023-04-05T03:37:33;100919.47;;;11.78;100.00
56402;BME280;42299;35.160;26.100;2023-04-05T03:38:57;100925.63;;;11.77;100.00
56402;BME280;42299;35.160;26.100;2023-04-05T03:40:20;100932.66;;;11.76;100.00
56402;BME280;42299;35.160;26.100;2023-04-05T03:41:42;100922.94;;;11.75;100.00
56402;BME280;42299;35.160;26.100;2023-04-05T03:43:05;100924.72;;;11.76;100.00
56402;BME280;42299;35.160;26.100;2023-04-05T03:44:28;100928.28;;;11.78;100.00
56402;BME280;42299;35.160;26.100;2023-04-05T03:45:51;100923.03;;;11.80;100.00
56402;BME280;42299;35.160;26.100;2023-04-05T03:47:13;100925.72;;;11.84;100.00
56402;BME280;42299;35.160;26.100;2023-04-05T03:48:37;100925.72;;;11.84;100.00
56402;BME280;42299;35.160;26.100;2023-04-05T03:50:00;100916.91;;;11.85;100.00
56402;BME280;42299;35.160;26.100;2023-04-05T03:51:22;100924.00;;;11.86;100.00
56402;BME280;42299;35.160;26.100;2023-04-05T03:52:45;100916.06;;;11.86;100.00
56402;BME280;42299;35.160;26.100;2023-04-05T03:54:06;100920.47;;;11.89;100.00
56402;BME280;42299;35.160;26.100;2023-04-05T03:55:30;100927.59;;;11.91;100.00
56402;BME280;42299;35.160;26.100;2023-04-05T03:56:57;100932.00;;;11.92;100.00
56402;BME280;42299;35.160;26.100;2023-04-05T03:58:19;100933.72;;;11.90;100.00
56402;BME280;42299;35.160;26.100;2023-04-05T03:59:42;100933.69;;;11.86;100.00
56402;BME280;42299;35.160;26.100;2023-04-05T04:01:03;100938.00;;;11.79;100.00
56402;BME280;42299;35.160;26.100;2023-04-05T04:02:26;100942.34;;;11.76;100.00
56402;BME280;42299;35.160;26.100;2023-04-05T04:03:49;100937.94;;;11.76;100.00
56402;BME280;42299;35.160;26.100;2023-04-05T04:05:12;100938.88;;;11.78;100.00
56402;BME280;42299;35.160;26.100;2023-04-05T04:06:34;100943.31;;;11.81;100.00
56402;BME280;42299;35.160;26.100;2023-04-05T04:07:57;100935.38;;;11.81;100.00
56402;BME280;42299;35.160;26.100;2023-04-05T04:09:20;100938.94;;;11.81;100.00
56402;BME280;42299;35.160;26.100;2023-04-05T04:10:43;100938.81;;;11.75;100.00
56402;BME280;42299;35.160;26.100;2023-04-05T04:12:12;100936.06;;;11.69;100.00
56402;BME280;42299;35.160;26.100;2023-04-05T04:13:46;100934.31;;;11.68;100.00
56402;BME280;42299;35.160;26.100;2023-04-05T04:15:27;100936.97;;;11.71;100.00
56402;BME280;42299;35.160;26.100;2023-04-05T04:17:07;100947.66;;;11.77;100.00
56402;BME280;42299;35.160;26.100;2023-04-05T04:19:01;100947.75;;;11.83;100.00
56402;BME280;42299;35.160;26.100;2023-04-05T04:20:23;100962.81;;;11.87;100.00
56402;BME280;42299;35.160;26.100;2023-04-05T04:22:11;100970.78;;;11.90;100.00
56402;BME280;42299;35.160;26.100;2023-04-05T04:24:02;100964.66;;;11.94;100.00
56402;BME280;42299;35.160;26.100;2023-04-05T04:25:50;100968.25;;;12.00;100.00
56402;BME280;42299;35.160;26.100;2023-04-05T04:27:37;100969.25;;;12.09;100.00
56402;BME280;42299;35.160;26.100;2023-04-05T04:29:15;100974.69;;;12.21;100.00
56402;BME280;42299;35.160;26.100;2023-04-05T04:31:04;100981.91;;;12.33;100.00
56402;BME280;42299;35.160;26.100;2023-04-05T04:33:07;100982.91;;;12.44;100.00
56402;BME280;42299;35.160;26.100;2023-04-05T04:34:57;100976.88;;;12.56;100.00
56402;BME280;42299;35.160;26.100;2023-04-05T04:36:47;100984.94;;;12.68;100.00
56402;BME280;42299;35.160;26.100;2023-04-05T04:38:40;100977.09;;;12.80;100.00
56402;BME280;42299;35.160;26.100;2023-04-05T04:40:40;100976.41;;;12.96;100.00
56402;BME280;42299;35.160;26.100;2023-04-05T04:42:36;100977.44;;;13.12;100.00
56402;BME280;42299;35.160;26.100;2023-04-05T04:44:24;100974.03;;;13.27;100.00
56402;BME280;42299;35.160;26.100;2023-04-05T04:46:20;100959.09;;;13.36;100.00
56402;BME280;42299;35.160;26.100;2023-04-05T04:48:03;100969.81;;;13.50;100.00
56402;BME280;42299;35.160;26.100;2023-04-05T04:49:52;100968.09;;;13.61;100.00
56402;BME280;42299;35.160;26.100;2023-04-05T04:51:16;100968.19;;;13.72;100.00
56402;BME280;42299;35.160;26.100;2023-04-05T04:52:39;100983.25;;;13.80;100.00
56402;BME280;42299;35.160;26.100;2023-04-05T04:54:00;100981.53;;;13.84;100.00
56402;BME280;42299;35.160;26.100;2023-04-05T04:55:23;100984.19;;;13.84;100.00
56402;BME280;42299;35.160;26.100;2023-04-05T04:56:45;100997.44;;;13.85;100.00
56402;BME280;42299;35.160;26.100;2023-04-05T04:58:08;100994.81;;;13.93;100.00
56402;BME280;42299;35.160;26.100;2023-04-05T04:59:31;100986.06;;;14.03;100.00
56402;BME280;42299;35.160;26.100;2023-04-05T05:00:56;100996.69;;;14.12;100.00
56402;BME280;42299;35.160;26.100;2023-04-05T05:02:22;100988.75;;;14.20;100.00
56402;BME280;42299;35.160;26.100;2023-04-05T05:03:45;100994.13;;;14.27;100.00
56402;BME280;42299;35.160;26.100;2023-04-05T05:05:14;100990.63;;;14.36;100.00
56402;BME280;42299;35.160;26.100;2023-04-05T05:06:37;100988.88;;;14.44;100.00
56402;BME280;42299;35.160;26.100;2023-04-05T05:07:59;100988.03;;;14.53;100.00
56402;BME280;42299;35.160;26.100;2023-04-05T05:09:21;100984.53;;;14.57;100.00
56402;BME280;42299;35.160;26.100;2023-04-05T05:10:50;100986.28;;;14.64;100.00
56402;BME280;42299;35.160;26.100;2023-04-05T05:12:13;100978.38;;;14.70;100.00
56402;BME280;42299;35.160;26.100;2023-04-05T05:13:36;100981.91;;;14.78;100.00
56402;BME280;42299;35.160;26.100;2023-04-05T05:14:58;100977.47;;;14.85;100.00
56402;BME280;42299;35.160;26.100;2023-04-05T05:16:21;100979.28;;;14.93;100.00
56402;BME280;42299;35.160;26.100;2023-04-05T05:17:43;100974.84;;;15.04;100.00
56402;BME280;42299;35.160;26.100;2023-04-05T05:19:06;100978.41;;;15.20;100.00
56402;BME280;42299;35.160;26.100;2023-04-05T05:20:37;100982.84;;;15.35;100.00
56402;BME280;42299;35.160;26.100;2023-04-05T05:22:01;100976.59;;;15.49;100.00
56402;BME280;42299;35.160;26.100;2023-04-05T05:23:22;100983.75;;;15.60;100.00
56402;BME280;42299;35.160;26.100;2023-04-05T05:24:46;100977.53;;;15.68;100.00
56402;BME280;42299;35.160;26.100;2023-04-05T05:26:09;100977.50;;;15.80;100.00
56402;BME280;42299;35.160;26.100;2023-04-05T05:27:32;100978.34;;;15.93;100.00
56402;BME280;42299;35.160;26.100;2023-04-05T05:28:54;100980.09;;;16.05;100.00
56402;BME280;42299;35.160;26.100;2023-04-05T05:30:20;100976.47;;;16.15;100.00
56402;BME280;42299;35.160;26.100;2023-04-05T05:31:41;100981.78;;;16.25;100.00
56402;BME280;42299;35.160;26.100;2023-04-05T05:33:04;100980.88;;;16.34;100.00
56402;BME280;42299;35.160;26.100;2023-04-05T05:34:26;100984.34;;;16.44;100.00
56402;BME280;42299;35.160;26.100;2023-04-05T05:35:51;100990.56;;;16.52;100.00
56402;BME280;42299;35.160;26.100;2023-04-05T05:37:15;100993.19;;;16.64;100.00
56402;BME280;42299;35.160;26.100;2023-04-05T05:38:37;100998.47;;;16.73;100.00
56402;BME280;42299;35.160;26.100;2023-04-05T05:40:03;100986.84;;;16.82;100.00
56402;BME280;42299;35.160;26.100;2023-04-05T05:41:26;100988.56;;;16.92;100.00
56402;BME280;42299;35.160;26.100;2023-04-05T05:42:48;100984.94;;;17.02;100.00
56402;BME280;42299;35.160;26.100;2023-04-05T05:44:11;100982.19;;;17.11;100.00
56402;BME280;42299;35.160;26.100;2023-04-05T05:45:33;100982.09;;;17.25;100.00
56402;BME280;42299;35.160;26.100;2023-04-05T05:46:56;100983.72;;;17.41;100.00
56402;BME280;42299;35.160;26.100;2023-04-05T05:48:18;100986.25;;;17.61;100.00
56402;BME280;42299;35.160;26.100;2023-04-05T05:49:40;100979.88;;;17.75;100.00
56402;BME280;42299;35.160;26.100;2023-04-05T05:51:03;100981.50;;;17.91;100.00
56402;BME280;42299;35.160;26.100;2023-04-05T05:52:31;100976.84;;;18.06;100.00
56402;BME280;42299;35.160;26.100;2023-04-05T05:53:55;100981.16;;;18.19;100.00
56402;BME280;42299;35.160;26.100;2023-04-05T05:55:18;100982.81;;;18.30;100.00
56402;BME280;42299;35.160;26.100;2023-04-05T05:56:40;100972.88;;;18.40;100.00
56402;BME280;42299;35.160;26.100;2023-04-05T05:58:03;100976.34;;;18.48;100.00
56402;BME280;42299;35.160;26.100;2023-04-05T05:59:26;100969.09;;;18.58;100.00
56402;BME280;42299;35.160;26.100;2023-04-05T06:00:49;100971.63;;;18.68;100.00
56402;BME280;42299;35.160;26.100;2023-04-05T06:02:16;100980.38;;;18.78;100.00
56402;BME280;42299;35.160;26.100;2023-04-05T06:03:39;100981.16;;;18.88;100.00
56402;BME280;42299;35.160;26.100;2023-04-05T06:05:01;100987.22;;;18.97;100.00
56402;BME280;42299;35.160;26.100;2023-04-05T06:06:25;100983.53;;;19.06;100.00
56402;BME280;42299;35.160;26.100;2023-04-05T06:07:51;100980.66;;;19.18;100.00
56402;BME280;42299;35.160;26.100;2023-04-05T06:09:14;100977.88;;;19.26;96.66
56402;BME280;42299;35.160;26.100;2023-04-05T06:10:35;100978.72;;;19.29;81.41
56402;BME280;42299;35.160;26.100;2023-04-05T06:11:58;100987.53;;;19.36;79.69
56402;BME280;42299;35.160;26.100;2023-04-05T06:13:20;100981.13;;;19.46;76.29
56402;BME280;42299;35.160;26.100;2023-04-05T06:14:42;100979.13;;;19.57;74.72
56402;BME280;42299;35.160;26.100;2023-04-05T06:16:04;100986.94;;;19.69;72.99
56402;BME280;42299;35.160;26.100;2023-04-05T06:17:27;100991.25;;;19.78;70.56
56402;BME280;42299;35.160;26.100;2023-04-05T06:18:50;100986.63;;;19.87;71.47
56402;BME280;42299;35.160;26.100;2023-04-05T06:20:15;100983.72;;;20.00;68.43
56402;BME280;42299;35.160;26.100;2023-04-05T06:21:37;100983.41;;;20.15;63.65
56402;BME280;42299;35.160;26.100;2023-04-05T06:23:01;100987.53;;;20.34;59.74
56402;BME280;42299;35.160;26.100;2023-04-05T06:24:24;100981.00;;;20.46;60.52
56402;BME280;42299;35.160;26.100;2023-04-05T06:25:47;100991.44;;;20.59;59.72
56402;BME280;42299;35.160;26.100;2023-04-05T06:27:10;100980.47;;;20.68;54.65
56402;BME280;42299;35.160;26.100;2023-04-05T06:28:34;100988.38;;;20.76;54.84
56402;BME280;42299;35.160;26.100;2023-04-05T06:29:58;100980.09;;;20.87;55.17
56402;BME280;42299;35.160;26.100;2023-04-05T06:31:26;100984.34;;;20.95;54.63
56402;BME280;42299;35.160;26.100;2023-04-05T06:32:49;100986.06;;;20.99;54.99
56402;BME280;42299;35.160;26.100;2023-04-05T06:34:14;100989.63;;;21.00;52.60
56402;BME280;42299;35.160;26.100;2023-04-05T06:35:37;100996.59;;;21.07;55.48
56402;BME280;42299;35.160;26.100;2023-04-05T06:37:00;100999.94;;;21.18;56.48
56402;BME280;42299;35.160;26.100;2023-04-05T06:38:24;101000.72;;;21.23;52.79
56402;BME280;42299;35.160;26.100;2023-04-05T06:39:47;101003.53;;;21.19;49.92
56402;BME280;42299;35.160;26.100;2023-04-05T06:41:10;101002.38;;;21.27;51.31
56402;BME280;42299;35.160;26.100;2023-04-05T06:42:32;101003.03;;;21.38;51.62
56402;BME280;42299;35.160;26.100;2023-04-05T06:43:58;101002.03;;;21.42;46.87
56402;BME280;42299;35.160;26.100;2023-04-05T06:45:20;101009.31;;;21.37;47.67
56402;BME280;42299;35.160;26.100;2023-04-05T06:46:43;101003.94;;;21.37;46.33
56402;BME280;42299;35.160;26.100;2023-04-05T06:48:06;101013.84;;;21.35;45.00
56402;BME280;42299;35.160;26.100;2023-04-05T06:49:28;101022.66;;;21.40;45.36
56402;BME280;42299;35.160;26.100;2023-04-05T06:50:56;101024.91;;;21.59;46.90
56402;BME280;42299;35.160;26.100;2023-04-05T06:52:18;101038.91;;;21.71;47.08
56402;BME280;42299;35.160;26.100;2023-04-05T06:53:42;101040.63;;;21.74;45.21
56402;BME280;42299;35.160;26.100;2023-04-05T06:55:06;101046.81;;;21.77;45.38
56402;BME280;42299;35.160;26.100;2023-04-05T06:56:28;101044.81;;;21.85;45.85
56402;BME280;42299;35.160;26.100;2023-04-05T06:57:50;101043.66;;;21.94;45.31
56402;BME280;42299;35.160;26.100;2023-04-05T06:59:13;101041.72;;;22.01;45.82
56402;BME280;42299;35.160;26.100;2023-04-05T07:00:35;101047.94;;;22.04;45.34
56402;BME280;42299;35.160;26.100;2023-04-05T07:01:57;101052.28;;;22.08;45.56
56402;BME280;42299;35.160;26.100;2023-04-05T07:03:20;101054.81;;;22.14;44.99
56402;BME280;42299;35.160;26.100;2023-04-05T07:04:42;101056.72;;;22.11;44.03
56402;BME280;42299;35.160;26.100;2023-04-05T07:06:06;101058.59;;;22.07;44.03
56402;BME280;42299;35.160;26.100;2023-04-05T07:07:29;101060.31;;;22.10;44.95
56402;BME280;42299;35.160;26.100;2023-04-05T07:08:53;101056.56;;;22.15;44.66
56402;BME280;42299;35.160;26.100;2023-04-05T07:10:15;101068.75;;;22.29;44.83
56402;BME280;42299;35.160;26.100;2023-04-05T07:11:37;101058.56;;;22.40;44.90
56402;BME280;42299;35.160;26.100;2023-04-05T07:13:00;101068.28;;;22.45;43.74
56402;BME280;42299;35.160;26.100;2023-04-05T07:14:22;101059.28;;;22.46;43.21
56402;BME280;42299;35.160;26.100;2023-04-05T07:15:45;101060.19;;;22.45;43.32
56402;BME280;42299;35.160;26.100;2023-04-05T07:17:07;101050.81;;;22.60;43.89